Time;durP1;ratioP1;P1;durP2;ratioP2;P2;SDS_P1;SDS_P2;PMS_P1;PMS_P2;Temp;Humidity;BMP_temperature;BMP_pressure;BME280_temperature;BME280_humidity;BME280_pressure;Samples;Min_cycle;Max_cycle;Signal;HPM_P1;HPM_P2
2021/03/12 00:01:25;;;;;;;238.48;141.73;;;;;;;8.15;65.00;101660.41;5007827;28;20096;-87
2021/03/12 00:03:52;;;;;;;227.07;137.98;;;;;;;8.45;65.95;101720.69;4992654;28;20039;-85
2021/03/12 00:06:19;;;;;;;215.05;129.60;;;;;;;7.91;67.02;101626.88;5008607;28;20125;-86
2021/03/12 00:08:47;;;;;;;208.95;131.18;;;;;;;8.28;66.66;101663.16;4992543;28;20106;-86
2021/03/12 00:11:15;;;;;;;217.50;131.85;;;;;;;8.37;67.68;101696.91;4996618;28;20032;-88
2021/03/12 00:13:43;;;;;;;228.75;133.25;;;;;;;8.91;66.78;101771.44;4997577;28;20034;-84
2021/03/12 00:16:10;;;;;;;235.95;136.73;;;;;;;8.80;66.65;101763.81;5008952;28;20121;-81
2021/03/12 00:18:42;;;;;;;230.50;132.48;;;;;;;8.76;66.38;101739.38;4994268;28;20044;-85
2021/03/12 00:21:11;;;;;;;230.30;135.32;;;;;;;9.14;67.95;101834.53;4992128;28;20057;-88
2021/03/12 00:23:39;;;;;;;231.90;137.13;;;;;;;8.13;68.43;101668.88;4993503;28;20431;-84
2021/03/12 00:26:06;;;;;;;233.07;138.98;;;;;;;8.05;69.49;101688.38;5008350;28;20022;-89
2021/03/12 00:28:34;;;;;;;238.23;142.65;;;;;;;8.62;69.61;101787.41;5010785;28;20033;-86
2021/03/12 00:31:02;;;;;;;245.30;149.15;;;;;;;7.70;69.35;101630.63;5010579;28;20018;-89
2021/03/12 00:33:30;;;;;;;248.82;145.90;;;;;;;8.74;70.20;101801.44;5004004;28;20041;-85
2021/03/12 00:35:57;;;;;;;250.98;148.73;;;;;;;8.15;70.23;101743.97;5000759;28;20034;-84
2021/03/12 00:38:25;;;;;;;241.85;142.50;;;;;;;7.83;70.10;101690.47;5006488;28;20030;-86
2021/03/12 00:41:01;;;;;;;228.50;139.38;;;;;;;8.24;69.55;101736.38;4994232;28;20027;-87
2021/03/12 00:43:29;;;;;;;248.00;143.20;;;;;;;7.93;69.77;101694.53;4998488;28;20018;-86
2021/03/12 00:45:59;;;;;;;249.73;141.43;;;;;;;8.18;68.74;101690.31;5003460;28;20121;-84
2021/03/12 00:48:26;;;;;;;247.07;143.75;;;;;;;8.62;68.79;101763.38;5020281;28;20050;-87
2021/03/12 00:50:54;;;;;;;243.80;140.93;;;;;;;8.38;68.28;101670.16;5013833;28;20046;-85
2021/03/12 00:53:21;;;;;;;230.32;138.73;;;;;;;8.45;67.27;101665.50;4973965;28;20142;-86
2021/03/12 00:55:49;;;;;;;240.38;137.80;;;;;;;9.25;67.32;101797.13;5008708;28;20651;-86
2021/03/12 00:58:17;;;;;;;244.43;136.50;;;;;;;9.30;66.15;101782.66;4994495;28;20058;-86
2021/03/12 01:00:45;;;;;;;229.85;133.82;;;;;;;9.65;66.01;101814.66;4993033;28;20509;-87
2021/03/12 01:03:12;;;;;;;234.07;140.07;;;;;;;8.67;65.53;101641.28;5008764;28;20041;-86
2021/03/12 01:05:40;;;;;;;224.40;138.90;;;;;;;8.75;65.74;101660.38;5008066;28;20019;-76
2021/03/12 01:08:08;;;;;;;231.88;135.02;;;;;;;9.40;65.05;101776.69;4992812;28;20022;-86
2021/03/12 01:10:37;;;;;;;230.15;135.98;;;;;;;9.58;64.50;101803.66;4992871;28;20026;-85
2021/03/12 01:13:04;;;;;;;223.90;133.13;;;;;;;9.33;65.47;101807.09;5009208;28;20108;-89
2021/03/12 01:15:32;;;;;;;227.35;133.90;;;;;;;9.34;64.78;101803.28;5009919;28;20034;-87
2021/03/12 01:17:59;;;;;;;236.85;136.40;;;;;;;9.69;64.14;101799.34;4994916;28;20014;-87
2021/03/12 01:20:31;;;;;;;216.73;132.88;;;;;;;8.73;63.68;101647.84;4991639;28;20070;-88
2021/03/12 01:23:00;;;;;;;216.32;128.77;;;;;;;9.69;64.07;101802.94;4993535;28;20030;-87
2021/03/12 01:25:38;;;;;;;221.63;135.02;;;;;;;9.06;63.15;101684.72;5001363;28;20041;-85
2021/03/12 01:28:07;;;;;;;220.85;133.65;;;;;;;9.90;62.47;101780.72;5011726;28;20034;-85
2021/03/12 01:30:40;;;;;;;211.05;132.40;;;;;;;10.19;62.20;101801.47;5012718;28;20034;-84
2021/03/12 01:33:07;;;;;;;217.93;134.02;;;;;;;10.12;62.59;101811.72;5029148;28;20423;-83
2021/03/12 01:35:35;;;;;;;203.57;123.10;;;;;;;10.02;60.93;101769.81;4994855;28;20038;-83
2021/03/12 01:38:03;;;;;;;209.15;129.00;;;;;;;9.68;61.22;101734.03;4990526;28;20029;-83
2021/03/12 01:40:31;;;;;;;208.93;127.75;;;;;;;10.15;61.15;101811.25;4992507;28;20026;-84
2021/03/12 01:43:00;;;;;;;220.40;129.18;;;;;;;10.21;60.11;101810.38;5006248;28;20060;-84
2021/03/12 01:45:37;;;;;;;205.55;121.78;;;;;;;9.03;59.82;101598.47;4991629;28;20022;-83
2021/03/12 01:48:09;;;;;;;218.48;129.20;;;;;;;9.96;59.91;101743.91;4991329;28;20052;-83
2021/03/12 01:50:36;;;;;;;208.25;124.35;;;;;;;10.27;59.73;101806.72;4991330;28;20037;-84
2021/03/12 01:53:10;;;;;;;198.00;121.97;;;;;;;9.12;59.73;101612.91;4991169;28;20030;-86
2021/03/12 01:55:38;;;;;;;192.88;121.20;;;;;;;10.59;58.82;101775.47;4986958;28;20435;-84
2021/03/12 01:58:06;;;;;;;206.15;120.22;;;;;;;10.71;58.46;101805.19;4980850;28;20026;-88
2021/03/12 02:00:33;;;;;;;193.40;120.65;;;;;;;11.03;57.90;101817.06;5007889;28;20031;-85
2021/03/12 02:03:02;;;;;;;198.35;118.65;;;;;;;10.97;57.33;101794.94;4996121;28;20034;-89
2021/03/12 02:05:29;;;;;;;196.07;117.10;;;;;;;10.91;57.43;101816.97;5011676;28;20475;-89
2021/03/12 02:07:56;;;;;;;187.27;117.90;;;;;;;10.31;56.79;101684.47;4997528;28;20054;-88
2021/03/12 02:10:26;;;;;;;198.07;116.30;;;;;;;10.41;56.79;101701.44;4992379;28;20030;-85
2021/03/12 02:13:05;;;;;;;190.35;118.55;;;;;;;11.15;56.89;101803.31;4997398;28;20538;-87
2021/03/12 02:15:38;;;;;;;199.90;113.53;;;;;;;10.35;56.69;101674.66;4996045;28;20397;-87
2021/03/12 02:18:15;;;;;;;199.75;117.93;;;;;;;10.57;56.27;101719.44;5012767;28;20117;-86
2021/03/12 02:21:01;;;;;;;193.20;115.30;;;;;;;10.98;56.74;101805.81;5014584;28;20521;-85
2021/03/12 02:24:01;;;;;;;202.00;118.00;;;;;;;11.05;56.62;101806.59;5007124;28;20026;-86
2021/03/12 02:26:44;;;;;;;188.68;113.78;;;;;;;10.11;55.74;101666.13;4990444;28;20129;-84
2021/03/12 02:29:24;;;;;;;193.90;118.95;;;;;;;10.34;55.87;101661.91;5017564;28;20033;-87
2021/03/12 02:31:52;;;;;;;;;;;;;;;11.25;56.27;101805.56;5012211;28;20548;-85
2021/03/12 02:34:25;;;;;;;201.82;118.30;;;;;;;10.49;55.80;101672.66;5007991;28;19902;-87
2021/03/12 02:36:59;;;;;;;184.82;114.55;;;;;;;11.46;54.99;101787.63;5010106;28;20030;-86
2021/03/12 02:39:29;;;;;;;186.73;117.93;;;;;;;11.57;54.66;101793.47;5000593;28;20050;-89
2021/03/12 02:41:59;;;;;;;188.48;114.60;;;;;;;10.66;53.87;101654.38;4996574;28;20526;-89
2021/03/12 02:44:28;;;;;;;193.27;117.10;;;;;;;11.71;53.50;101799.72;5002205;28;20029;-88
2021/03/12 02:47:04;;;;;;;189.80;116.03;;;;;;;11.56;54.00;101792.66;5008578;28;20030;-89
2021/03/12 02:49:32;;;;;;;203.70;115.18;;;;;;;10.25;53.68;101578.28;5007832;28;20023;-88
2021/03/12 02:52:00;;;;;;;191.52;114.93;;;;;;;11.38;53.80;101789.84;5000672;28;20033;-87
2021/03/12 02:54:27;;;;;;;201.07;116.95;;;;;;;10.60;54.58;101668.28;5016789;28;20031;-87
2021/03/12 02:56:55;;;;;;;184.25;107.55;;;;;;;11.55;55.25;101790.97;4997443;28;20034;-88
2021/03/12 02:59:22;;;;;;;175.73;109.65;;;;;;;9.76;55.64;101531.06;5013832;28;20027;-87
2021/03/12 03:01:52;;;;;;;186.35;109.85;;;;;;;11.05;55.45;101798.28;5013049;28;20053;-88
2021/03/12 03:04:21;;;;;;;192.18;113.22;;;;;;;9.32;56.65;101584.31;5014301;28;20058;-88
2021/03/12 03:06:49;;;;;;;192.68;113.43;;;;;;;10.78;56.43;101789.38;5012006;28;20431;-88
2021/03/12 03:09:18;;;;;;;188.50;111.93;;;;;;;10.22;56.10;101679.22;4997203;28;20109;-88
2021/03/12 03:11:47;;;;;;;191.50;113.43;;;;;;;10.79;56.58;101783.59;4998386;28;20472;-88
2021/03/12 03:14:15;;;;;;;187.27;112.55;;;;;;;9.99;55.41;101613.44;4995072;28;20085;-88
2021/03/12 03:16:45;;;;;;;180.18;111.72;;;;;;;9.81;55.72;101581.03;4995448;28;20022;-87
2021/03/12 03:19:14;;;;;;;198.15;113.07;;;;;;;11.44;54.29;101775.06;5011229;28;20600;-88
2021/03/12 03:21:43;;;;;;;186.90;109.72;;;;;;;11.76;53.00;101774.91;4995023;28;20065;-90
2021/03/12 03:24:11;;;;;;;188.57;107.85;;;;;;;11.68;53.75;101772.44;4995492;28;20097;-89
2021/03/12 03:26:38;;;;;;;182.02;109.47;;;;;;;11.54;53.28;101767.06;5000090;28;20023;-88
2021/03/12 03:29:06;;;;;;;186.35;107.03;;;;;;;10.91;52.25;101672.03;4996638;28;20062;-89
2021/03/12 03:31:33;;;;;;;185.93;108.88;;;;;;;11.53;52.73;101758.97;4997824;28;20061;-89
2021/03/12 03:34:00;;;;;;;167.93;104.43;;;;;;;11.49;52.21;101742.78;5012630;28;20061;-88
2021/03/12 03:36:27;;;;;;;185.32;106.38;;;;;;;11.76;50.11;101688.88;5013603;28;20100;-88
2021/03/12 03:38:54;;;;;;;187.40;110.68;;;;;;;10.88;50.22;101603.25;5012292;28;20030;-88
2021/03/12 03:41:22;;;;;;;192.82;108.72;;;;;;;11.57;50.89;101749.97;4995316;28;20041;-88
2021/03/12 03:43:52;;;;;;;181.30;105.88;;;;;;;11.75;49.81;101739.91;5011202;28;20400;-89
2021/03/12 03:46:20;;;;;;;190.40;108.30;;;;;;;11.42;50.53;101738.41;4996383;28;20410;-79
2021/03/12 03:48:47;;;;;;;195.10;106.47;;;;;;;11.08;49.97;101669.50;4992870;28;20472;-74
2021/03/12 03:51:16;;;;;;;186.20;107.25;;;;;;;11.65;49.45;101751.56;4989516;28;20010;-87
2021/03/12 03:53:44;;;;;;;186.30;105.82;;;;;;;11.65;48.97;101709.94;4993416;28;20038;-80
2021/03/12 03:56:15;;;;;;;174.25;103.65;;;;;;;11.81;49.39;101744.53;4997239;28;20117;-81
2021/03/12 03:58:44;;;;;;;166.55;103.10;;;;;;;11.84;48.52;101688.56;5008658;28;20040;-81
2021/03/12 04:01:13;;;;;;;198.65;108.30;;;;;;;11.63;48.54;101660.28;5021692;28;20045;-91
2021/03/12 04:03:42;;;;;;;180.83;104.93;;;;;;;9.75;48.72;101321.97;4998876;28;20506;-92
2021/03/12 04:06:12;;;;;;;178.17;105.23;;;;;;;11.61;48.96;101612.50;4982845;28;20042;-90
2021/03/12 04:08:41;;;;;;;172.45;103.18;;;;;;;11.29;48.83;101582.22;5020202;28;20026;-90
2021/03/12 04:11:08;;;;;;;183.23;106.47;;;;;;;12.00;49.09;101725.91;4998466;28;20034;-91
2021/03/12 04:13:36;;;;;;;180.25;101.60;;;;;;;11.93;48.88;101743.75;4999617;28;20105;-90
2021/03/12 04:16:07;;;;;;;189.63;105.65;;;;;;;11.58;49.05;101740.56;5013306;28;20034;-91
2021/03/12 04:18:35;;;;;;;180.57;107.90;;;;;;;10.44;48.39;101489.75;5009074;28;20456;-91
2021/03/12 04:21:03;;;;;;;191.05;110.22;;;;;;;11.03;48.77;101600.91;5012685;28;20046;-91
2021/03/12 04:23:40;;;;;;;194.40;110.18;;;;;;;11.59;48.39;101714.50;5003444;28;20039;-92
2021/03/12 04:26:23;;;;;;;192.82;108.45;;;;;;;11.83;48.20;101731.25;5017496;28;20022;-90
2021/03/12 04:36:38;;;;;;;184.98;107.40;;;;;;;10.90;47.10;101557.59;5898481;23;20049;-94
2021/03/12 04:39:06;;;;;;;172.63;102.63;;;;;;;9.99;46.71;101359.75;4988897;28;20027;-93
2021/03/12 04:41:45;;;;;;;185.93;101.80;;;;;;;12.10;45.96;101678.19;4998604;28;20070;-92
2021/03/12 04:44:20;;;;;;;178.77;102.40;;;;;;;11.20;46.03;101534.63;4984499;28;20019;-94
2021/03/12 04:47:11;;;;;;;166.73;97.65;;;;;;;12.11;45.87;101698.44;4976482;28;20018;-92
2021/03/12 04:50:05;;;;;;;174.75;99.63;;;;;;;10.00;45.73;101358.69;4978805;28;20129;-95
2021/03/12 04:52:55;;;;;;;184.75;102.43;;;;;;;11.48;46.18;101579.44;4972154;28;20015;-95
2021/03/12 04:55:29;;;;;;;160.70;95.85;;;;;;;12.61;45.31;101690.81;4974021;28;20196;-94
2021/03/12 04:58:01;;;;;;;163.85;96.03;;;;;;;11.87;45.12;101537.41;4966955;28;20034;-94
2021/03/12 05:25:08;;;;;;;152.30;92.40;;;;;;;10.79;46.03;101347.84;5254419;23;20053;-94
2021/03/12 05:27:39;;;;;;;175.02;96.43;;;;;;;10.48;46.46;101297.22;5515439;23;20039;-96
2021/03/12 05:43:12;;;;;;;154.40;89.38;;;;;;;12.59;47.23;101689.13;5260838;23;20062;-94
2021/03/12 05:45:41;;;;;;;136.73;80.80;;;;;;;12.17;48.36;101662.28;4972206;28;20035;-95
2021/03/12 05:55:53;;;;;;;83.85;51.05;;;;;;;11.07;50.96;101512.63;4971749;28;20055;-95
2021/03/12 05:58:31;;;;;;;80.65;50.00;;;;;;;8.93;53.07;101252.03;4961236;28;20055;-94
2021/03/12 06:01:09;;;;;;;78.22;48.95;;;;;;;11.76;53.99;101688.88;4986400;28;20046;-94
2021/03/12 06:03:36;;;;;;;76.53;47.85;;;;;;;10.81;55.20;101554.28;4975481;28;20033;-91
2021/03/12 06:06:07;;;;;;;69.60;46.67;;;;;;;9.95;56.03;101455.38;4959660;28;20023;-91
2021/03/12 06:08:36;;;;;;;72.20;44.80;;;;;;;11.31;56.32;101646.63;4952745;29;20505;-88
2021/03/12 06:13:56;;;;;;;64.68;42.88;;;;;;;11.56;58.37;101701.13;5146083;23;20061;-93
2021/03/12 06:16:50;;;;;;;60.50;40.20;;;;;;;11.23;59.72;101645.00;5088541;23;20055;-94
2021/03/12 06:19:21;;;;;;;58.90;39.75;;;;;;;10.67;59.38;101556.38;4949888;29;20044;-94
2021/03/12 06:21:51;;;;;;;61.67;38.80;;;;;;;10.91;60.03;101636.00;4953209;28;20502;-91
2021/03/12 06:24:50;;;;;;;55.10;38.17;;;;;;;11.32;60.76;101709.31;4942526;29;20035;-95
2021/03/12 06:27:29;;;;;;;60.97;38.75;;;;;;;9.23;60.94;101372.88;4927502;29;20036;-91
2021/03/12 06:30:01;;;;;;;53.42;36.17;;;;;;;10.92;61.02;101666.25;4918574;29;20468;-92
2021/03/12 06:32:41;;;;;;;51.67;34.63;;;;;;;10.28;61.88;101516.94;4936655;29;20035;-89
2021/03/12 06:35:08;;;;;;;;;;;;;;;11.32;60.59;101708.44;4920842;29;20027;-88
2021/03/12 06:37:36;;;;;;;42.65;30.45;;;;;;;11.44;59.90;101702.97;4942706;29;19914;-89
2021/03/12 06:40:30;;;;;;;42.30;27.33;;;;;;;11.52;60.26;101690.72;4935361;29;20020;-89
2021/03/12 06:43:03;;;;;;;37.17;27.38;;;;;;;11.72;59.54;101696.00;4933689;29;20044;-89
2021/03/12 06:45:31;;;;;;;39.08;26.83;;;;;;;10.10;59.28;101421.78;4928696;29;20055;-93
2021/03/12 06:48:25;;;;;;;45.20;32.83;;;;;;;11.75;59.49;101698.28;4958173;28;20027;-92
2021/03/12 06:50:56;;;;;;;46.75;29.75;;;;;;;11.67;59.78;101695.84;4941364;29;20095;-92
2021/03/12 06:53:30;;;;;;;41.65;30.42;;;;;;;11.59;59.58;101697.03;4968013;28;20031;-91
2021/03/12 06:56:02;;;;;;;44.33;30.23;;;;;;;10.92;59.89;101621.94;4941301;28;20036;-91
2021/03/12 06:58:34;;;;;;;45.70;30.58;;;;;;;10.00;59.58;101430.59;4943024;29;20028;-92
2021/03/12 07:01:03;;;;;;;41.07;31.37;;;;;;;11.45;60.28;101713.84;4943682;29;20067;-93
2021/03/12 07:03:32;;;;;;;52.17;34.95;;;;;;;9.66;60.69;101466.06;4917844;29;20035;-94
2021/03/12 07:06:05;;;;;;;46.10;32.92;;;;;;;9.61;60.85;101432.69;4932477;29;20023;-94
2021/03/12 07:08:38;;;;;;;47.33;31.75;;;;;;;9.85;60.90;101497.38;4964853;29;20477;-93
2021/03/12 07:11:55;;;;;;;64.38;38.20;;;;;;;11.08;61.79;101691.66;4937204;29;20130;-93
2021/03/12 07:14:53;;;;;;;53.75;36.17;;;;;;;11.05;62.13;101711.53;5310614;23;20446;-94
2021/03/12 07:17:22;;;;;;;52.78;34.47;;;;;;;10.61;61.76;101614.59;4934844;29;20126;-91
2021/03/12 07:19:50;;;;;;;51.83;35.08;;;;;;;10.87;61.79;101632.03;4936008;29;20425;-86
2021/03/12 07:22:19;;;;;;;48.47;34.22;;;;;;;11.13;61.73;101677.97;4920284;29;20094;-92
2021/03/12 07:24:46;;;;;;;54.20;33.65;;;;;;;10.85;61.24;101589.81;4924439;29;20008;-90
2021/03/12 07:27:30;;;;;;;54.47;35.88;;;;;;;11.15;61.07;101653.63;4924263;29;20049;-88
2021/03/12 07:30:28;;;;;;;49.17;34.70;;;;;;;11.01;61.06;101591.13;5356197;23;20119;-93
2021/03/12 07:33:13;;;;;;;49.65;33.17;;;;;;;11.72;60.03;101684.91;4959114;29;20036;-94
2021/03/12 07:35:49;;;;;;;50.95;35.88;;;;;;;10.82;59.85;101533.81;4966029;29;20098;-88
2021/03/12 07:38:17;;;;;;;48.88;30.58;;;;;;;10.52;58.61;101501.38;4949987;29;20028;-88
2021/03/12 07:40:44;;;;;;;46.35;30.95;;;;;;;11.52;58.62;101641.63;4939218;29;20038;-89
2021/03/12 07:43:13;;;;;;;46.25;30.75;;;;;;;11.08;58.46;101553.97;4924220;29;20032;-90
2021/03/12 07:45:43;;;;;;;50.40;30.83;;;;;;;11.83;58.71;101680.50;4951205;29;20477;-86
2021/03/12 07:48:12;;;;;;;47.08;32.63;;;;;;;10.78;58.86;101509.59;4942922;29;20034;-87
2021/03/12 07:50:40;;;;;;;41.85;29.23;;;;;;;11.79;58.25;101680.13;4957403;29;20058;-88
2021/03/12 07:53:10;;;;;;;42.55;30.70;;;;;;;11.84;58.06;101688.56;4950337;29;20031;-87
2021/03/12 07:55:39;;;;;;;39.92;28.67;;;;;;;11.96;57.65;101685.00;4943416;29;20091;-87
2021/03/12 07:58:31;;;;;;;52.38;32.90;;;;;;;12.05;57.47;101678.03;4934530;29;20039;-88
2021/03/12 08:00:58;;;;;;;49.85;33.63;;;;;;;12.09;57.41;101678.41;4927986;29;20040;-87
2021/03/12 08:03:49;;;;;;;43.03;27.45;;;;;;;10.88;55.77;101514.59;4958380;29;20028;-88
2021/03/12 08:06:25;;;;;;;33.35;24.10;;;;;;;11.88;55.14;101678.69;4946085;29;20040;-88
2021/03/12 08:08:52;;;;;;;38.53;25.88;;;;;;;11.94;55.17;101682.44;4945526;29;20024;-88
2021/03/12 08:11:29;;;;;;;39.38;24.92;;;;;;;12.02;55.06;101676.56;4940193;29;20031;-89
2021/03/12 08:14:17;;;;;;;32.47;21.85;;;;;;;11.88;54.68;101692.56;4936973;29;20066;-88
2021/03/12 08:17:04;;;;;;;30.08;21.38;;;;;;;11.83;54.99;101691.59;4915082;29;20110;-88
2021/03/12 08:19:42;;;;;;;34.65;23.40;;;;;;;10.45;55.12;101461.03;4941486;29;20068;-88
2021/03/12 08:22:27;;;;;;;33.70;22.95;;;;;;;11.90;55.28;101676.53;4930582;29;20047;-87
2021/03/12 08:24:56;;;;;;;28.52;22.45;;;;;;;10.53;55.01;101467.06;4940227;28;20039;-88
2021/03/12 08:27:48;;;;;;;36.33;22.05;;;;;;;11.95;55.33;101669.44;4927440;29;20024;-89
2021/03/12 08:30:25;;;;;;;35.22;23.13;;;;;;;11.95;55.23;101669.44;4942158;28;20059;-88
2021/03/12 08:32:54;;;;;;;35.65;22.63;;;;;;;10.90;55.62;101531.81;4948149;28;20028;-88
2021/03/12 08:35:42;;;;;;;31.85;21.52;;;;;;;11.76;55.69;101677.78;4942082;29;20019;-87
2021/03/12 08:38:12;;;;;;;32.22;21.35;;;;;;;11.74;55.99;101677.19;4936722;29;20569;-88
2021/03/12 08:40:42;;;;;;;34.80;21.90;;;;;;;11.66;56.31;101688.63;4937971;29;20020;-87
2021/03/12 08:43:14;;;;;;;34.72;21.83;;;;;;;10.50;56.52;101483.31;4936128;29;20133;-87
2021/03/12 08:45:52;;;;;;;38.00;24.70;;;;;;;11.76;56.21;101705.53;4934241;29;20027;-86
2021/03/12 08:48:34;;;;;;;34.05;23.52;;;;;;;11.77;56.31;101693.38;4934079;29;20042;-87
2021/03/12 08:51:08;;;;;;;30.13;23.48;;;;;;;11.32;56.46;101611.41;4932541;29;20083;-87
2021/03/12 08:53:41;;;;;;;38.58;22.73;;;;;;;10.90;56.45;101552.06;4914342;29;20489;-87
2021/03/12 08:56:09;;;;;;;33.75;22.70;;;;;;;11.72;56.78;101696.00;4932445;29;20027;-85
2021/03/12 08:58:38;;;;;;;39.15;23.08;;;;;;;11.69;56.84;101696.47;4937784;29;20122;-85
2021/03/12 09:01:35;;;;;;;29.45;20.70;;;;;;;11.60;56.93;101695.94;4939441;28;20046;-88
2021/03/12 09:04:05;;;;;;;36.08;21.92;;;;;;;10.71;56.97;101545.69;4914489;29;20043;-84
2021/03/12 09:06:37;;;;;;;32.90;21.07;;;;;;;11.62;56.50;101730.69;4933779;29;20028;-85
2021/03/12 09:09:06;;;;;;;35.65;23.27;;;;;;;11.39;56.87;101650.13;4943997;29;20283;-87
2021/03/12 09:11:34;;;;;;;30.40;20.45;;;;;;;11.41;57.07;101661.84;4922982;29;20524;-87
2021/03/12 09:14:02;;;;;;;31.83;22.60;;;;;;;11.49;56.86;101672.63;4923401;29;20374;-85
2021/03/12 09:16:31;;;;;;;32.13;22.23;;;;;;;11.65;56.96;101712.72;4943725;29;20049;-84
2021/03/12 09:18:58;;;;;;;30.60;21.65;;;;;;;10.99;57.05;101605.22;4938608;29;20126;-83
2021/03/12 09:21:28;;;;;;;34.05;22.38;;;;;;;11.19;56.81;101631.84;4944347;29;20037;-83
2021/03/12 09:23:59;;;;;;;30.67;22.25;;;;;;;11.71;56.51;101708.19;4937003;29;20054;-85
2021/03/12 09:26:31;;;;;;;34.80;21.33;;;;;;;11.07;56.77;101624.28;4921868;29;20035;-83
2021/03/12 09:29:03;;;;;;;42.33;23.60;;;;;;;11.43;56.83;101684.66;4936884;29;20027;-86
2021/03/12 09:31:40;;;;;;;35.95;22.10;;;;;;;11.62;56.46;101716.84;4943647;28;20052;-91
2021/03/12 09:34:13;;;;;;;32.45;21.73;;;;;;;11.59;56.80;101728.38;4938288;29;20511;-91
2021/03/12 09:36:42;;;;;;;28.42;20.63;;;;;;;10.15;56.72;101506.84;4936060;29;20035;-88
2021/03/12 09:39:19;;;;;;;34.20;20.40;;;;;;;10.12;56.66;101496.25;4944510;29;20031;-86
2021/03/12 09:41:54;;;;;;;33.90;20.88;;;;;;;10.17;56.60;101490.88;4926967;29;20031;-90
2021/03/12 09:44:22;;;;;;;32.35;20.95;;;;;;;10.51;56.36;101570.81;4951376;29;20464;-87
2021/03/12 09:46:51;;;;;;;28.40;20.92;;;;;;;10.67;56.67;101609.00;4952092;29;20032;-86
2021/03/12 09:49:32;;;;;;;28.40;16.85;;;;;;;11.17;56.24;101711.63;4942284;29;20477;-86
2021/03/12 09:52:17;;;;;;;30.73;21.30;;;;;;;10.81;56.59;101659.56;4940564;29;20035;-88
2021/03/12 09:54:45;;;;;;;29.50;20.00;;;;;;;10.41;56.47;101593.47;4936515;29;20503;-87
2021/03/12 09:57:18;;;;;;;30.20;20.58;;;;;;;11.59;56.64;101781.06;4933014;29;20036;-89
2021/03/12 09:59:51;;;;;;;30.90;20.77;;;;;;;11.54;56.24;101794.81;4943772;29;20389;-88
2021/03/12 10:02:18;;;;;;;30.00;21.00;;;;;;;10.68;56.27;101640.31;4939092;29;20090;-88
2021/03/12 10:04:55;;;;;;;31.77;22.85;;;;;;;10.60;55.79;101637.84;4933236;29;20035;-89
2021/03/12 10:07:22;;;;;;;33.80;23.25;;;;;;;10.86;55.55;101658.03;4937078;29;20369;-88
2021/03/12 10:09:50;;;;;;;31.55;23.13;;;;;;;11.44;55.41;101750.13;4941662;29;20036;-87
2021/03/12 10:12:23;;;;;;;33.65;21.08;;;;;;;11.22;55.47;101733.94;4943370;29;20035;-89
2021/03/12 10:14:54;;;;;;;27.80;22.40;;;;;;;10.75;55.86;101663.25;4950901;29;20042;-89
2021/03/12 10:17:26;;;;;;;30.45;22.10;;;;;;;10.66;56.28;101657.13;4926326;29;20441;-90
2021/03/12 10:20:03;;;;;;;30.08;21.25;;;;;;;11.63;55.68;101815.59;4946414;29;20047;-88
2021/03/12 10:22:37;;;;;;;31.70;21.90;;;;;;;11.71;55.67;101808.06;4941235;29;20126;-86
2021/03/12 10:25:12;;;;;;;35.28;24.05;;;;;;;11.67;55.40;101810.44;4943970;29;20051;-86
2021/03/12 10:27:40;;;;;;;33.72;22.65;;;;;;;11.68;55.72;101825.16;4923662;29;20094;-86
2021/03/12 10:33:08;;;;;;;33.58;23.27;;;;;;;11.03;56.59;101761.66;4934517;29;20078;-88
2021/03/12 10:35:45;;;;;;;37.30;25.42;;;;;;;11.49;57.02;101831.53;4942024;29;20083;-90
2021/03/12 10:38:18;;;;;;;37.75;29.13;;;;;;;11.49;57.15;101839.84;4938722;29;20035;-87
2021/03/12 10:40:50;;;;;;;46.00;25.10;;;;;;;10.90;57.30;101770.94;4941416;29;20032;-88
2021/03/12 10:43:25;;;;;;;34.22;25.38;;;;;;;10.44;57.63;101689.94;4921760;29;20031;-89
2021/03/12 10:46:04;;;;;;;35.83;23.45;;;;;;;11.04;57.78;101792.97;4933265;29;20485;-88
2021/03/12 10:48:46;;;;;;;38.90;26.17;;;;;;;10.45;57.93;101704.66;4935680;29;20051;-87
2021/03/12 10:51:15;;;;;;;37.40;25.73;;;;;;;9.91;58.25;101625.63;4933131;29;20036;-85
2021/03/12 10:53:54;;;;;;;34.67;23.98;;;;;;;11.26;58.19;101862.69;4931764;29;20126;-88
2021/03/12 10:56:26;;;;;;;34.10;23.73;;;;;;;10.68;58.20;101773.25;4932623;29;20480;-86
2021/03/12 10:59:09;;;;;;;37.65;24.85;;;;;;;10.73;58.71;101792.81;4939212;29;20070;-87
2021/03/12 11:01:46;;;;;;;36.42;24.48;;;;;;;10.43;58.86;101762.16;4938355;29;20067;-88
2021/03/12 11:04:14;;;;;;;36.60;22.92;;;;;;;10.30;58.62;101758.38;4939595;29;20096;-86
2021/03/12 11:06:42;;;;;;;31.35;21.77;;;;;;;10.92;59.00;101892.59;4949557;29;20063;-87
2021/03/12 11:09:10;;;;;;;41.42;22.17;;;;;;;10.41;59.24;101787.28;4924792;29;20524;-86
2021/03/12 11:11:38;;;;;;;34.67;20.85;;;;;;;10.35;59.24;101799.22;4920758;29;20044;-88
2021/03/12 11:14:05;;;;;;;29.73;20.48;;;;;;;10.32;59.02;101795.00;4936429;29;20032;-88
2021/03/12 11:16:33;;;;;;;34.25;21.55;;;;;;;10.09;59.37;101779.78;4920349;29;20037;-88
2021/03/12 11:19:00;;;;;;;32.65;22.77;;;;;;;10.75;59.27;101882.06;4945673;29;20119;-88
2021/03/12 11:21:28;;;;;;;32.38;22.05;;;;;;;10.66;59.41;101880.66;4936100;29;20418;-87
2021/03/12 11:23:58;;;;;;;29.50;20.40;;;;;;;10.61;59.77;101880.44;4944261;29;20031;-87
2021/03/12 11:27:00;;;;;;;30.95;22.00;;;;;;;9.89;59.38;101788.19;4937181;29;20663;-87
2021/03/12 11:29:28;;;;;;;42.22;21.85;;;;;;;9.10;59.71;101650.09;4905227;29;20047;-87
2021/03/12 11:31:59;;;;;;;27.88;18.50;;;;;;;9.59;60.01;101755.56;4945997;29;20413;-86
2021/03/12 11:34:26;;;;;;;29.85;20.33;;;;;;;8.60;59.62;101575.06;4939725;29;20552;-87
2021/03/12 11:36:57;;;;;;;26.85;20.00;;;;;;;9.77;59.42;101768.69;4955113;29;20559;-86
2021/03/12 11:39:24;;;;;;;31.45;18.83;;;;;;;10.44;59.69;101869.91;4945176;29;20073;-86
2021/03/12 11:41:51;;;;;;;30.05;19.65;;;;;;;9.72;59.74;101774.88;4931185;29;20038;-87
2021/03/12 11:44:18;;;;;;;30.45;18.85;;;;;;;10.02;59.81;101816.84;4945657;29;20370;-87
2021/03/12 11:46:45;;;;;;;28.92;18.48;;;;;;;9.04;59.71;101679.44;4939769;29;20078;-88
2021/03/12 11:49:12;;;;;;;30.25;21.05;;;;;;;10.27;60.09;101884.22;4942081;29;20555;-85
2021/03/12 11:51:41;;;;;;;35.40;21.27;;;;;;;9.60;59.88;101793.22;4933397;29;20043;-85
2021/03/12 11:54:08;;;;;;;33.75;23.45;;;;;;;9.37;59.97;101760.53;4939331;29;20571;-86
2021/03/12 11:56:36;;;;;;;28.05;18.63;;;;;;;9.26;59.74;101760.13;4925378;29;20040;-86
2021/03/12 11:59:03;;;;;;;31.27;20.98;;;;;;;9.78;60.00;101845.06;4948278;29;20074;-86
2021/03/12 12:01:34;;;;;;;30.25;21.48;;;;;;;9.04;59.84;101726.41;4935882;29;20062;-86
2021/03/12 12:04:01;;;;;;;38.35;21.80;;;;;;;8.45;60.00;101632.38;4936129;29;20028;-87
2021/03/12 12:06:28;;;;;;;36.78;23.80;;;;;;;9.31;60.18;101796.28;4933160;29;20067;-87
2021/03/12 12:08:55;;;;;;;45.03;25.25;;;;;;;9.88;60.15;101905.47;4926420;29;20033;-86
2021/03/12 12:11:27;;;;;;;37.80;25.38;;;;;;;9.37;60.34;101843.44;4938738;29;20090;-86
2021/03/12 12:13:54;;;;;;;39.55;23.85;;;;;;;9.44;60.91;101872.78;4919872;29;20028;-86
2021/03/12 12:16:21;;;;;;;39.03;25.90;;;;;;;8.09;60.31;101656.59;4939489;29;20027;-88
2021/03/12 12:18:48;;;;;;;38.33;25.50;;;;;;;8.90;60.93;101831.38;4943467;29;20031;-84
2021/03/12 12:21:15;;;;;;;43.40;24.55;;;;;;;7.58;60.74;101600.09;4942057;29;20035;-87
2021/03/12 12:23:42;;;;;;;43.65;27.67;;;;;;;9.28;60.87;101878.75;4948337;29;20118;-87
2021/03/12 12:26:09;;;;;;;34.63;25.02;;;;;;;9.22;60.84;101890.66;4949433;29;20037;-86